CCR3 weather

Florenceville Airport
Florenceville, New Brunswick, Canada

Public forecast

Using degrees Celsius for public forecast. Weather courtesy of forecast.io.

METAR (pilot weather report)

Closest report is Houlton International Airport, 19.4 nm (36.0 km) SSW. Retrieved 2019/04/24 02:31 UTC (0 seconds ago):

KHUL 240231Z AUTO 36006KT 3SM BR OVC004 02/01 A2986 RMK AO2 CIG 003V007 T00170011

TAF (pilot weather forecast)

Forecast is more than 12 hours old.

Closest forecast is Houlton International Airport, 19.4 nm (36.0 km) SSW. Retrieved 2019/04/23 00:22 UTC (1 day ago):

TAF KHUL 232320Z 2400/2424 05008KT P6SM VCSH OVC008 FM240900 06003KT P6SM VCSH OVC007 FM241200 09005KT 5SM -RA OVC006